Etusivu
METAR-TAF:

METAR-TAF

Lentoasemat :

Chengdu Shuangliun kansainvälinen lentoasema

Chengdu, Kiina

Leveyspiiri: 30-40N, Pituuspiiri: 104-01E, korkeus merenpinnasta: 508 m

Tämänhetkinen sää

Tämä raportti tehtiin 26 minuuttia sitten, kello 08.00 UTC
tyyntä
Lämpötila 26°C
Kosteus 74%
Ilmanpaine 1013 hPa
Näkyvyys 10 km tai enemmän
ei pilviä alle 1500 m:ssä eikä cumulonimbus-pilviä

METAR: ZUUU 200800Z 00000MPS CAVOK 26/21 Q1013 NOSIG

Aika: 16:26 (08:26 UTC)

Sääennuste

Tämä raportti tehtiin 6 tuntia ja 2 minuuttia sitten, kello 02.24 UTC
Ennuste voimassa 20. päivästä klo 06 UTC - 21. päivään klo 06 UTC
Tuuli 6 kn etelästä/lounaasta
Näkyvyys: 5000 m
Hajanaisia pilviä 4000 ft:n korkeudessa
utua

TAF: ZUUU 200224Z 2006/2106 20003MPS 5000 BR SCT040 TX27/2007Z TN20/2022Z

Säähavainnot ja -ennusteet yli 4000 lentoasemalta (METAR- ja TAF-raportit).

Käytössä olevat sääasemat on merkitty karttaan keltaisilla ja punaisilla pisteillä.

Aseta hiiri pisteen päälle nähdäksesi sääaseman nimen.

Klikkaa sitten nähdäksesi säähavainnot ja -ennusteet.

Kartan vaihtaminen: klikkaa mustalla rastilla varustettuja vihreitä pisteitä, niin voit zoomata sisään; viivalla varustettua vihreää pistettä, niin voit zoomata ulos tai vihreitä nuolia, niin pääset viereisille kartoille.


METAR-TAF: